sensor_id;sensor_type;location;lat;lon;timestamp;P1;durP1;ratioP1;P2;durP2;ratioP2
5521;SDS011;2783;48.730;8.006;2022-07-24T00:01:26;10.45;;;6.15;;
5521;SDS011;2783;48.730;8.006;2022-07-24T00:03:51;8.55;;;5.90;;
5521;SDS011;2783;48.730;8.006;2022-07-24T00:06:17;9.73;;;5.65;;
5521;SDS011;2783;48.730;8.006;2022-07-24T00:08:42;11.13;;;6.43;;
5521;SDS011;2783;48.730;8.006;2022-07-24T00:11:08;15.75;;;7.32;;
5521;SDS011;2783;48.730;8.006;2022-07-24T00:13:33;10.85;;;6.57;;
5521;SDS011;2783;48.730;8.006;2022-07-24T00:15:59;9.15;;;6.68;;
5521;SDS011;2783;48.730;8.006;2022-07-24T00:18:24;9.35;;;5.63;;
5521;SDS011;2783;48.730;8.006;2022-07-24T00:20:50;10.35;;;6.15;;
5521;SDS011;2783;48.730;8.006;2022-07-24T00:23:15;10.43;;;6.60;;
5521;SDS011;2783;48.730;8.006;2022-07-24T00:25:40;10.82;;;6.18;;
5521;SDS011;2783;48.730;8.006;2022-07-24T00:28:06;9.35;;;6.45;;
5521;SDS011;2783;48.730;8.006;2022-07-24T00:30:31;13.25;;;6.65;;
5521;SDS011;2783;48.730;8.006;2022-07-24T00:32:57;10.82;;;6.20;;
5521;SDS011;2783;48.730;8.006;2022-07-24T00:35:22;12.18;;;6.60;;
5521;SDS011;2783;48.730;8.006;2022-07-24T00:37:47;10.40;;;6.55;;
5521;SDS011;2783;48.730;8.006;2022-07-24T00:40:13;9.20;;;6.68;;
5521;SDS011;2783;48.730;8.006;2022-07-24T00:42:40;13.00;;;6.90;;
5521;SDS011;2783;48.730;8.006;2022-07-24T00:45:07;10.25;;;6.57;;
5521;SDS011;2783;48.730;8.006;2022-07-24T00:47:32;10.82;;;6.82;;
5521;SDS011;2783;48.730;8.006;2022-07-24T00:49:58;10.65;;;6.72;;
5521;SDS011;2783;48.730;8.006;2022-07-24T00:52:25;9.45;;;6.72;;
5521;SDS011;2783;48.730;8.006;2022-07-24T00:54:50;10.40;;;6.45;;
5521;SDS011;2783;48.730;8.006;2022-07-24T00:57:16;11.38;;;6.22;;
5521;SDS011;2783;48.730;8.006;2022-07-24T00:59:41;10.25;;;6.80;;
5521;SDS011;2783;48.730;8.006;2022-07-24T01:02:06;11.88;;;6.63;;
5521;SDS011;2783;48.730;8.006;2022-07-24T01:04:32;9.45;;;6.03;;
5521;SDS011;2783;48.730;8.006;2022-07-24T01:06:57;8.77;;;6.07;;
5521;SDS011;2783;48.730;8.006;2022-07-24T01:09:23;12.77;;;6.70;;
5521;SDS011;2783;48.730;8.006;2022-07-24T01:11:49;12.23;;;6.68;;
5521;SDS011;2783;48.730;8.006;2022-07-24T01:14:16;11.25;;;6.80;;
5521;SDS011;2783;48.730;8.006;2022-07-24T01:16:42;9.18;;;5.82;;
5521;SDS011;2783;48.730;8.006;2022-07-24T01:19:07;10.98;;;7.28;;
5521;SDS011;2783;48.730;8.006;2022-07-24T01:21:33;11.95;;;7.50;;
5521;SDS011;2783;48.730;8.006;2022-07-24T01:23:58;9.93;;;6.60;;
5521;SDS011;2783;48.730;8.006;2022-07-24T01:26:24;9.70;;;6.22;;
5521;SDS011;2783;48.730;8.006;2022-07-24T01:28:49;8.85;;;6.50;;
5521;SDS011;2783;48.730;8.006;2022-07-24T01:31:15;9.95;;;7.40;;
5521;SDS011;2783;48.730;8.006;2022-07-24T01:33:40;9.98;;;6.35;;
5521;SDS011;2783;48.730;8.006;2022-07-24T01:36:05;9.82;;;6.43;;
5521;SDS011;2783;48.730;8.006;2022-07-24T01:38:31;9.65;;;6.65;;
5521;SDS011;2783;48.730;8.006;2022-07-24T01:40:56;9.75;;;6.57;;
5521;SDS011;2783;48.730;8.006;2022-07-24T01:43:22;12.10;;;7.40;;
5521;SDS011;2783;48.730;8.006;2022-07-24T01:45:47;13.38;;;7.07;;
5521;SDS011;2783;48.730;8.006;2022-07-24T01:48:13;9.10;;;6.35;;
5521;SDS011;2783;48.730;8.006;2022-07-24T01:50:38;10.27;;;7.07;;
5521;SDS011;2783;48.730;8.006;2022-07-24T01:53:04;13.57;;;7.35;;
5521;SDS011;2783;48.730;8.006;2022-07-24T01:55:29;11.25;;;6.80;;
5521;SDS011;2783;48.730;8.006;2022-07-24T01:57:55;11.10;;;6.90;;
5521;SDS011;2783;48.730;8.006;2022-07-24T02:00:21;12.75;;;6.80;;
5521;SDS011;2783;48.730;8.006;2022-07-24T02:02:46;12.00;;;6.93;;
5521;SDS011;2783;48.730;8.006;2022-07-24T02:05:12;11.05;;;6.68;;
5521;SDS011;2783;48.730;8.006;2022-07-24T02:07:39;10.98;;;6.88;;
5521;SDS011;2783;48.730;8.006;2022-07-24T02:10:06;10.75;;;6.30;;
5521;SDS011;2783;48.730;8.006;2022-07-24T02:12:32;10.23;;;6.57;;
5521;SDS011;2783;48.730;8.006;2022-07-24T02:14:58;11.63;;;6.85;;
5521;SDS011;2783;48.730;8.006;2022-07-24T02:17:23;11.25;;;6.43;;
5521;SDS011;2783;48.730;8.006;2022-07-24T02:19:49;10.95;;;6.93;;
5521;SDS011;2783;48.730;8.006;2022-07-24T02:22:14;11.20;;;7.65;;
5521;SDS011;2783;48.730;8.006;2022-07-24T02:24:39;9.88;;;6.85;;
5521;SDS011;2783;48.730;8.006;2022-07-24T02:27:05;10.52;;;6.97;;
5521;SDS011;2783;48.730;8.006;2022-07-24T02:29:30;8.90;;;6.35;;
5521;SDS011;2783;48.730;8.006;2022-07-24T02:31:56;12.25;;;6.95;;
5521;SDS011;2783;48.730;8.006;2022-07-24T02:34:21;11.35;;;7.03;;
5521;SDS011;2783;48.730;8.006;2022-07-24T02:36:46;11.07;;;6.95;;
5521;SDS011;2783;48.730;8.006;2022-07-24T02:39:12;10.18;;;6.40;;
5521;SDS011;2783;48.730;8.006;2022-07-24T02:41:37;10.93;;;6.40;;
5521;SDS011;2783;48.730;8.006;2022-07-24T02:44:03;9.20;;;6.47;;
5521;SDS011;2783;48.730;8.006;2022-07-24T02:46:28;9.27;;;6.28;;
5521;SDS011;2783;48.730;8.006;2022-07-24T02:48:54;10.65;;;7.38;;
5521;SDS011;2783;48.730;8.006;2022-07-24T02:51:19;10.15;;;6.75;;
5521;SDS011;2783;48.730;8.006;2022-07-24T02:53:45;9.98;;;6.47;;
5521;SDS011;2783;48.730;8.006;2022-07-24T02:56:10;8.75;;;6.15;;
5521;SDS011;2783;48.730;8.006;2022-07-24T02:58:35;11.88;;;6.72;;
5521;SDS011;2783;48.730;8.006;2022-07-24T03:01:01;13.65;;;6.97;;
5521;SDS011;2783;48.730;8.006;2022-07-24T03:03:26;10.52;;;7.15;;
5521;SDS011;2783;48.730;8.006;2022-07-24T03:05:52;11.70;;;7.13;;
5521;SDS011;2783;48.730;8.006;2022-07-24T03:08:17;15.63;;;7.32;;
5521;SDS011;2783;48.730;8.006;2022-07-24T03:10:43;12.55;;;7.93;;
5521;SDS011;2783;48.730;8.006;2022-07-24T03:13:08;11.70;;;6.55;;
5521;SDS011;2783;48.730;8.006;2022-07-24T03:15:34;12.93;;;6.90;;
5521;SDS011;2783;48.730;8.006;2022-07-24T03:17:59;12.20;;;7.38;;
5521;SDS011;2783;48.730;8.006;2022-07-24T03:20:25;12.55;;;6.78;;
5521;SDS011;2783;48.730;8.006;2022-07-24T03:22:52;11.90;;;7.03;;
5521;SDS011;2783;48.730;8.006;2022-07-24T03:25:17;11.77;;;7.07;;
5521;SDS011;2783;48.730;8.006;2022-07-24T03:27:43;15.82;;;7.18;;
5521;SDS011;2783;48.730;8.006;2022-07-24T03:30:11;11.32;;;7.43;;
5521;SDS011;2783;48.730;8.006;2022-07-24T03:32:36;10.95;;;7.32;;
5521;SDS011;2783;48.730;8.006;2022-07-24T03:35:02;11.70;;;7.00;;
5521;SDS011;2783;48.730;8.006;2022-07-24T03:37:28;10.73;;;6.88;;
5521;SDS011;2783;48.730;8.006;2022-07-24T03:39:53;10.27;;;6.75;;
5521;SDS011;2783;48.730;8.006;2022-07-24T03:42:19;10.80;;;7.03;;
5521;SDS011;2783;48.730;8.006;2022-07-24T03:44:44;10.57;;;7.50;;
5521;SDS011;2783;48.730;8.006;2022-07-24T03:47:10;11.95;;;7.30;;
5521;SDS011;2783;48.730;8.006;2022-07-24T03:49:35;12.75;;;8.05;;
5521;SDS011;2783;48.730;8.006;2022-07-24T03:52:01;13.73;;;7.28;;
5521;SDS011;2783;48.730;8.006;2022-07-24T03:54:26;10.15;;;6.63;;
5521;SDS011;2783;48.730;8.006;2022-07-24T03:56:52;11.85;;;7.97;;
5521;SDS011;2783;48.730;8.006;2022-07-24T03:59:18;11.80;;;6.47;;
5521;SDS011;2783;48.730;8.006;2022-07-24T04:01:43;10.57;;;6.72;;
5521;SDS011;2783;48.730;8.006;2022-07-24T04:04:09;9.85;;;7.25;;
5521;SDS011;2783;48.730;8.006;2022-07-24T04:06:35;10.40;;;7.55;;
5521;SDS011;2783;48.730;8.006;2022-07-24T04:09:01;11.82;;;6.80;;
5521;SDS011;2783;48.730;8.006;2022-07-24T04:11:28;12.48;;;7.28;;
5521;SDS011;2783;48.730;8.006;2022-07-24T04:13:53;11.38;;;7.50;;
5521;SDS011;2783;48.730;8.006;2022-07-24T04:16:19;10.68;;;7.03;;
5521;SDS011;2783;48.730;8.006;2022-07-24T04:18:45;14.18;;;7.63;;
5521;SDS011;2783;48.730;8.006;2022-07-24T04:21:10;12.75;;;7.60;;
5521;SDS011;2783;48.730;8.006;2022-07-24T04:23:36;12.25;;;7.50;;
5521;SDS011;2783;48.730;8.006;2022-07-24T04:26:01;16.75;;;8.50;;
5521;SDS011;2783;48.730;8.006;2022-07-24T04:28:27;13.20;;;7.55;;
5521;SDS011;2783;48.730;8.006;2022-07-24T04:30:53;13.23;;;9.07;;
5521;SDS011;2783;48.730;8.006;2022-07-24T04:33:18;16.25;;;7.45;;
5521;SDS011;2783;48.730;8.006;2022-07-24T04:35:44;11.43;;;7.28;;
5521;SDS011;2783;48.730;8.006;2022-07-24T04:38:09;11.68;;;6.45;;
5521;SDS011;2783;48.730;8.006;2022-07-24T04:40:34;12.05;;;7.32;;
5521;SDS011;2783;48.730;8.006;2022-07-24T04:43:00;9.80;;;6.47;;
5521;SDS011;2783;48.730;8.006;2022-07-24T04:45:25;9.80;;;6.85;;
5521;SDS011;2783;48.730;8.006;2022-07-24T04:47:51;10.38;;;6.95;;
5521;SDS011;2783;48.730;8.006;2022-07-24T04:50:16;12.43;;;8.13;;
5521;SDS011;2783;48.730;8.006;2022-07-24T04:52:42;11.43;;;7.07;;
5521;SDS011;2783;48.730;8.006;2022-07-24T04:55:08;14.52;;;7.88;;
5521;SDS011;2783;48.730;8.006;2022-07-24T04:57:34;16.25;;;8.38;;
5521;SDS011;2783;48.730;8.006;2022-07-24T05:00:00;10.25;;;7.35;;
5521;SDS011;2783;48.730;8.006;2022-07-24T05:02:25;13.50;;;8.48;;
5521;SDS011;2783;48.730;8.006;2022-07-24T05:04:51;12.52;;;7.78;;
5521;SDS011;2783;48.730;8.006;2022-07-24T05:07:16;12.48;;;7.97;;
5521;SDS011;2783;48.730;8.006;2022-07-24T05:09:42;13.40;;;8.68;;
5521;SDS011;2783;48.730;8.006;2022-07-24T05:12:07;11.68;;;8.30;;
5521;SDS011;2783;48.730;8.006;2022-07-24T05:14:33;10.25;;;7.55;;
5521;SDS011;2783;48.730;8.006;2022-07-24T05:16:58;11.93;;;7.18;;
5521;SDS011;2783;48.730;8.006;2022-07-24T05:19:24;12.02;;;7.63;;
5521;SDS011;2783;48.730;8.006;2022-07-24T05:21:49;12.32;;;7.32;;
5521;SDS011;2783;48.730;8.006;2022-07-24T05:24:14;12.82;;;8.18;;
5521;SDS011;2783;48.730;8.006;2022-07-24T05:26:40;11.52;;;7.68;;
5521;SDS011;2783;48.730;8.006;2022-07-24T05:29:05;11.10;;;7.85;;
5521;SDS011;2783;48.730;8.006;2022-07-24T05:31:31;13.02;;;7.63;;
5521;SDS011;2783;48.730;8.006;2022-07-24T05:33:58;15.82;;;8.70;;
5521;SDS011;2783;48.730;8.006;2022-07-24T05:36:23;11.38;;;8.52;;
5521;SDS011;2783;48.730;8.006;2022-07-24T05:38:49;14.63;;;7.70;;
5521;SDS011;2783;48.730;8.006;2022-07-24T05:41:14;12.57;;;8.35;;
5521;SDS011;2783;48.730;8.006;2022-07-24T05:43:40;15.68;;;7.72;;
5521;SDS011;2783;48.730;8.006;2022-07-24T05:46:05;12.23;;;8.00;;
5521;SDS011;2783;48.730;8.006;2022-07-24T05:48:31;11.57;;;7.65;;
5521;SDS011;2783;48.730;8.006;2022-07-24T05:50:57;10.10;;;6.82;;
5521;SDS011;2783;48.730;8.006;2022-07-24T05:53:22;10.73;;;6.88;;
5521;SDS011;2783;48.730;8.006;2022-07-24T05:55:48;11.25;;;7.30;;
5521;SDS011;2783;48.730;8.006;2022-07-24T05:58:15;10.98;;;7.00;;
5521;SDS011;2783;48.730;8.006;2022-07-24T06:00:41;14.98;;;8.02;;
5521;SDS011;2783;48.730;8.006;2022-07-24T06:03:07;12.05;;;7.85;;
5521;SDS011;2783;48.730;8.006;2022-07-24T06:05:32;10.18;;;6.95;;
5521;SDS011;2783;48.730;8.006;2022-07-24T06:07:58;11.23;;;7.22;;
5521;SDS011;2783;48.730;8.006;2022-07-24T06:10:23;10.63;;;7.22;;
5521;SDS011;2783;48.730;8.006;2022-07-24T06:12:49;12.18;;;7.85;;
5521;SDS011;2783;48.730;8.006;2022-07-24T06:15:14;13.05;;;7.40;;
5521;SDS011;2783;48.730;8.006;2022-07-24T06:17:40;11.20;;;7.53;;
5521;SDS011;2783;48.730;8.006;2022-07-24T06:20:06;12.95;;;7.43;;
5521;SDS011;2783;48.730;8.006;2022-07-24T06:22:33;13.48;;;7.20;;
5521;SDS011;2783;48.730;8.006;2022-07-24T06:24:59;12.15;;;7.45;;
5521;SDS011;2783;48.730;8.006;2022-07-24T06:27:24;13.10;;;7.93;;
5521;SDS011;2783;48.730;8.006;2022-07-24T06:29:49;10.93;;;6.80;;
5521;SDS011;2783;48.730;8.006;2022-07-24T06:32:15;11.48;;;6.65;;
5521;SDS011;2783;48.730;8.006;2022-07-24T06:34:40;10.02;;;6.65;;
5521;SDS011;2783;48.730;8.006;2022-07-24T06:37:06;8.70;;;6.00;;
5521;SDS011;2783;48.730;8.006;2022-07-24T06:39:31;9.88;;;6.72;;
5521;SDS011;2783;48.730;8.006;2022-07-24T06:41:57;9.60;;;6.85;;
5521;SDS011;2783;48.730;8.006;2022-07-24T06:44:22;10.70;;;6.88;;
5521;SDS011;2783;48.730;8.006;2022-07-24T06:46:47;10.18;;;6.53;;
5521;SDS011;2783;48.730;8.006;2022-07-24T06:49:13;8.85;;;5.78;;
5521;SDS011;2783;48.730;8.006;2022-07-24T06:51:39;10.30;;;5.95;;
5521;SDS011;2783;48.730;8.006;2022-07-24T06:54:04;11.23;;;6.18;;
5521;SDS011;2783;48.730;8.006;2022-07-24T06:56:30;11.02;;;6.95;;
5521;SDS011;2783;48.730;8.006;2022-07-24T06:58:56;8.80;;;5.93;;
5521;SDS011;2783;48.730;8.006;2022-07-24T07:01:21;8.38;;;5.40;;
5521;SDS011;2783;48.730;8.006;2022-07-24T07:03:50;9.20;;;5.55;;
5521;SDS011;2783;48.730;8.006;2022-07-24T07:06:17;6.95;;;5.25;;
5521;SDS011;2783;48.730;8.006;2022-07-24T07:08:42;9.80;;;5.22;;
5521;SDS011;2783;48.730;8.006;2022-07-24T07:11:07;7.82;;;5.30;;
5521;SDS011;2783;48.730;8.006;2022-07-24T07:13:33;8.23;;;4.97;;
5521;SDS011;2783;48.730;8.006;2022-07-24T07:15:58;10.93;;;5.88;;
5521;SDS011;2783;48.730;8.006;2022-07-24T07:18:24;8.63;;;5.25;;
5521;SDS011;2783;48.730;8.006;2022-07-24T07:20:49;8.18;;;5.55;;
5521;SDS011;2783;48.730;8.006;2022-07-24T07:23:18;8.90;;;5.13;;
5521;SDS011;2783;48.730;8.006;2022-07-24T07:25:47;9.45;;;5.65;;
5521;SDS011;2783;48.730;8.006;2022-07-24T07:28:13;10.15;;;5.55;;
5521;SDS011;2783;48.730;8.006;2022-07-24T07:30:38;7.70;;;5.40;;
5521;SDS011;2783;48.730;8.006;2022-07-24T07:33:03;7.22;;;5.32;;
5521;SDS011;2783;48.730;8.006;2022-07-24T07:35:29;8.43;;;5.63;;
5521;SDS011;2783;48.730;8.006;2022-07-24T07:37:54;8.55;;;5.32;;
5521;SDS011;2783;48.730;8.006;2022-07-24T07:40:20;8.25;;;4.95;;
5521;SDS011;2783;48.730;8.006;2022-07-24T07:42:45;8.48;;;5.07;;
5521;SDS011;2783;48.730;8.006;2022-07-24T07:45:11;6.95;;;4.50;;
5521;SDS011;2783;48.730;8.006;2022-07-24T07:47:37;7.78;;;5.00;;
5521;SDS011;2783;48.730;8.006;2022-07-24T07:50:02;6.88;;;4.40;;
5521;SDS011;2783;48.730;8.006;2022-07-24T07:52:29;8.40;;;4.85;;
5521;SDS011;2783;48.730;8.006;2022-07-24T07:54:54;6.88;;;4.43;;
5521;SDS011;2783;48.730;8.006;2022-07-24T07:57:20;6.75;;;4.90;;
5521;SDS011;2783;48.730;8.006;2022-07-24T07:59:45;7.75;;;4.95;;
5521;SDS011;2783;48.730;8.006;2022-07-24T08:02:11;7.75;;;4.93;;
5521;SDS011;2783;48.730;8.006;2022-07-24T08:04:36;8.60;;;4.90;;
5521;SDS011;2783;48.730;8.006;2022-07-24T08:07:02;7.50;;;4.80;;
5521;SDS011;2783;48.730;8.006;2022-07-24T08:09:27;6.80;;;4.68;;
5521;SDS011;2783;48.730;8.006;2022-07-24T08:11:52;8.13;;;4.65;;
5521;SDS011;2783;48.730;8.006;2022-07-24T08:14:18;8.48;;;4.88;;
5521;SDS011;2783;48.730;8.006;2022-07-24T08:16:43;7.85;;;4.70;;
5521;SDS011;2783;48.730;8.006;2022-07-24T08:19:09;7.40;;;4.85;;
5521;SDS011;2783;48.730;8.006;2022-07-24T08:21:34;7.38;;;4.70;;
5521;SDS011;2783;48.730;8.006;2022-07-24T08:24:00;6.60;;;4.60;;
5521;SDS011;2783;48.730;8.006;2022-07-24T08:26:25;8.27;;;4.05;;
5521;SDS011;2783;48.730;8.006;2022-07-24T08:28:55;8.88;;;4.68;;
5521;SDS011;2783;48.730;8.006;2022-07-24T08:31:21;7.55;;;4.03;;
5521;SDS011;2783;48.730;8.006;2022-07-24T08:33:46;8.75;;;4.53;;
5521;SDS011;2783;48.730;8.006;2022-07-24T08:36:12;6.65;;;4.57;;
5521;SDS011;2783;48.730;8.006;2022-07-24T08:38:37;9.00;;;4.63;;
5521;SDS011;2783;48.730;8.006;2022-07-24T08:41:02;6.85;;;4.30;;
5521;SDS011;2783;48.730;8.006;2022-07-24T08:43:28;10.45;;;4.55;;
5521;SDS011;2783;48.730;8.006;2022-07-24T08:45:54;8.82;;;4.45;;
5521;SDS011;2783;48.730;8.006;2022-07-24T08:48:21;7.60;;;4.40;;
5521;SDS011;2783;48.730;8.006;2022-07-24T08:50:47;7.20;;;4.70;;
5521;SDS011;2783;48.730;8.006;2022-07-24T08:53:12;6.50;;;4.57;;
5521;SDS011;2783;48.730;8.006;2022-07-24T08:55:38;7.78;;;4.13;;
5521;SDS011;2783;48.730;8.006;2022-07-24T08:58:03;7.45;;;4.90;;
5521;SDS011;2783;48.730;8.006;2022-07-24T09:00:30;6.20;;;3.85;;
5521;SDS011;2783;48.730;8.006;2022-07-24T09:02:56;6.95;;;4.50;;
5521;SDS011;2783;48.730;8.006;2022-07-24T09:05:22;8.50;;;5.00;;
5521;SDS011;2783;48.730;8.006;2022-07-24T09:07:48;7.07;;;4.57;;
5521;SDS011;2783;48.730;8.006;2022-07-24T09:10:14;8.77;;;4.55;;
5521;SDS011;2783;48.730;8.006;2022-07-24T09:12:44;7.45;;;4.78;;
5521;SDS011;2783;48.730;8.006;2022-07-24T09:15:12;6.68;;;4.55;;
5521;SDS011;2783;48.730;8.006;2022-07-24T09:22:41;6.88;;;4.97;;
5521;SDS011;2783;48.730;8.006;2022-07-24T09:25:12;6.47;;;4.38;;
5521;SDS011;2783;48.730;8.006;2022-07-24T09:27:45;6.10;;;4.32;;
5521;SDS011;2783;48.730;8.006;2022-07-24T09:35:39;7.88;;;4.50;;
5521;SDS011;2783;48.730;8.006;2022-07-24T09:38:13;6.53;;;4.47;;
5521;SDS011;2783;48.730;8.006;2022-07-24T09:40:42;10.48;;;4.13;;
5521;SDS011;2783;48.730;8.006;2022-07-24T09:43:16;6.15;;;4.13;;
5521;SDS011;2783;48.730;8.006;2022-07-24T09:46:08;5.97;;;4.28;;
5521;SDS011;2783;48.730;8.006;2022-07-24T09:48:39;6.45;;;4.05;;
5521;SDS011;2783;48.730;8.006;2022-07-24T09:51:16;5.38;;;3.78;;
5521;SDS011;2783;48.730;8.006;2022-07-24T09:53:43;7.22;;;4.03;;
5521;SDS011;2783;48.730;8.006;2022-07-24T09:56:12;5.90;;;3.70;;
5521;SDS011;2783;48.730;8.006;2022-07-24T09:58:40;6.38;;;3.72;;
5521;SDS011;2783;48.730;8.006;2022-07-24T10:01:15;5.57;;;3.85;;
5521;SDS011;2783;48.730;8.006;2022-07-24T10:03:43;7.57;;;4.38;;
5521;SDS011;2783;48.730;8.006;2022-07-24T10:06:11;6.80;;;3.78;;
5521;SDS011;2783;48.730;8.006;2022-07-24T10:08:42;6.40;;;4.05;;
5521;SDS011;2783;48.730;8.006;2022-07-24T10:11:08;5.72;;;3.60;;
5521;SDS011;2783;48.730;8.006;2022-07-24T10:13:35;6.05;;;4.15;;
5521;SDS011;2783;48.730;8.006;2022-07-24T10:16:10;8.13;;;3.95;;
5521;SDS011;2783;48.730;8.006;2022-07-24T10:18:57;7.15;;;3.50;;
5521;SDS011;2783;48.730;8.006;2022-07-24T10:21:29;6.18;;;3.03;;
5521;SDS011;2783;48.730;8.006;2022-07-24T10:26:49;6.15;;;4.18;;
5521;SDS011;2783;48.730;8.006;2022-07-24T10:31:48;6.05;;;4.00;;
5521;SDS011;2783;48.730;8.006;2022-07-24T10:42:31;5.63;;;3.67;;
5521;SDS011;2783;48.730;8.006;2022-07-24T10:45:16;5.55;;;2.97;;
5521;SDS011;2783;48.730;8.006;2022-07-24T10:47:46;7.72;;;3.83;;
5521;SDS011;2783;48.730;8.006;2022-07-24T10:50:12;6.13;;;3.65;;
5521;SDS011;2783;48.730;8.006;2022-07-24T10:52:39;5.97;;;3.22;;
5521;SDS011;2783;48.730;8.006;2022-07-24T10:57:58;6.47;;;3.75;;
5521;SDS011;2783;48.730;8.006;2022-07-24T11:00:34;5.68;;;3.05;;
5521;SDS011;2783;48.730;8.006;2022-07-24T11:03:03;5.25;;;2.85;;
5521;SDS011;2783;48.730;8.006;2022-07-24T11:05:34;5.03;;;3.30;;
5521;SDS011;2783;48.730;8.006;2022-07-24T11:10:46;4.55;;;3.30;;
5521;SDS011;2783;48.730;8.006;2022-07-24T11:18:35;5.43;;;3.10;;
5521;SDS011;2783;48.730;8.006;2022-07-24T11:21:05;5.78;;;3.22;;
5521;SDS011;2783;48.730;8.006;2022-07-24T11:23:31;4.80;;;3.28;;
5521;SDS011;2783;48.730;8.006;2022-07-24T11:32:01;3.90;;;2.72;;
5521;SDS011;2783;48.730;8.006;2022-07-24T11:34:30;4.78;;;2.70;;
5521;SDS011;2783;48.730;8.006;2022-07-24T11:36:57;5.35;;;3.10;;
5521;SDS011;2783;48.730;8.006;2022-07-24T11:39:28;4.22;;;2.60;;
5521;SDS011;2783;48.730;8.006;2022-07-24T11:41:56;4.25;;;2.75;;
5521;SDS011;2783;48.730;8.006;2022-07-24T11:44:28;5.65;;;3.47;;
5521;SDS011;2783;48.730;8.006;2022-07-24T11:46:55;5.97;;;3.10;;
5521;SDS011;2783;48.730;8.006;2022-07-24T11:49:23;4.97;;;2.67;;
5521;SDS011;2783;48.730;8.006;2022-07-24T11:51:51;4.32;;;2.50;;
5521;SDS011;2783;48.730;8.006;2022-07-24T11:54:22;6.25;;;2.80;;
5521;SDS011;2783;48.730;8.006;2022-07-24T11:56:49;4.47;;;2.72;;
5521;SDS011;2783;48.730;8.006;2022-07-24T11:59:26;4.38;;;2.63;;
5521;SDS011;2783;48.730;8.006;2022-07-24T12:01:54;4.53;;;3.17;;
5521;SDS011;2783;48.730;8.006;2022-07-24T12:04:21;5.97;;;3.28;;
5521;SDS011;2783;48.730;8.006;2022-07-24T12:06:47;3.92;;;2.50;;
5521;SDS011;2783;48.730;8.006;2022-07-24T12:09:13;4.75;;;2.58;;
5521;SDS011;2783;48.730;8.006;2022-07-24T12:11:39;4.85;;;2.80;;
5521;SDS011;2783;48.730;8.006;2022-07-24T12:14:05;5.00;;;3.17;;
5521;SDS011;2783;48.730;8.006;2022-07-24T12:16:52;5.70;;;2.80;;
5521;SDS011;2783;48.730;8.006;2022-07-24T12:19:20;6.15;;;2.92;;
5521;SDS011;2783;48.730;8.006;2022-07-24T12:21:47;6.03;;;3.00;;
5521;SDS011;2783;48.730;8.006;2022-07-24T12:24:15;4.60;;;2.78;;
5521;SDS011;2783;48.730;8.006;2022-07-24T12:26:54;6.45;;;2.83;;
5521;SDS011;2783;48.730;8.006;2022-07-24T12:29:20;4.60;;;2.80;;
5521;SDS011;2783;48.730;8.006;2022-07-24T12:31:47;4.65;;;2.80;;
5521;SDS011;2783;48.730;8.006;2022-07-24T12:34:13;4.88;;;2.60;;
5521;SDS011;2783;48.730;8.006;2022-07-24T12:36:39;5.22;;;2.60;;
5521;SDS011;2783;48.730;8.006;2022-07-24T12:39:05;3.20;;;2.13;;
5521;SDS011;2783;48.730;8.006;2022-07-24T12:41:34;4.57;;;3.00;;
5521;SDS011;2783;48.730;8.006;2022-07-24T12:44:08;5.20;;;2.97;;
5521;SDS011;2783;48.730;8.006;2022-07-24T12:46:34;5.72;;;3.33;;
5521;SDS011;2783;48.730;8.006;2022-07-24T12:51:59;6.70;;;2.90;;
5521;SDS011;2783;48.730;8.006;2022-07-24T12:54:26;4.93;;;3.10;;
5521;SDS011;2783;48.730;8.006;2022-07-24T12:56:54;4.25;;;2.67;;
5521;SDS011;2783;48.730;8.006;2022-07-24T12:59:31;4.30;;;2.65;;
5521;SDS011;2783;48.730;8.006;2022-07-24T13:02:19;4.80;;;2.72;;
5521;SDS011;2783;48.730;8.006;2022-07-24T13:04:51;4.50;;;2.80;;
5521;SDS011;2783;48.730;8.006;2022-07-24T13:07:19;4.00;;;2.70;;
5521;SDS011;2783;48.730;8.006;2022-07-24T13:09:46;12.30;;;7.05;;
5521;SDS011;2783;48.730;8.006;2022-07-24T13:12:13;5.72;;;3.58;;
5521;SDS011;2783;48.730;8.006;2022-07-24T13:14:39;4.95;;;2.88;;
5521;SDS011;2783;48.730;8.006;2022-07-24T13:17:07;5.35;;;3.00;;
5521;SDS011;2783;48.730;8.006;2022-07-24T13:19:35;4.97;;;2.95;;
5521;SDS011;2783;48.730;8.006;2022-07-24T13:22:02;4.75;;;2.90;;
5521;SDS011;2783;48.730;8.006;2022-07-24T13:24:27;5.65;;;3.63;;
5521;SDS011;2783;48.730;8.006;2022-07-24T13:26:54;4.18;;;2.72;;
5521;SDS011;2783;48.730;8.006;2022-07-24T13:29:20;3.78;;;2.50;;
5521;SDS011;2783;48.730;8.006;2022-07-24T13:31:46;3.53;;;2.35;;
5521;SDS011;2783;48.730;8.006;2022-07-24T13:34:11;4.30;;;2.90;;
5521;SDS011;2783;48.730;8.006;2022-07-24T13:36:37;5.50;;;3.22;;
5521;SDS011;2783;48.730;8.006;2022-07-24T13:39:06;4.47;;;2.78;;
5521;SDS011;2783;48.730;8.006;2022-07-24T13:41:32;4.63;;;3.00;;
5521;SDS011;2783;48.730;8.006;2022-07-24T13:43:57;4.90;;;3.10;;
5521;SDS011;2783;48.730;8.006;2022-07-24T13:46:23;4.88;;;3.15;;
5521;SDS011;2783;48.730;8.006;2022-07-24T13:48:49;4.57;;;3.03;;
5521;SDS011;2783;48.730;8.006;2022-07-24T13:51:16;5.97;;;2.70;;
5521;SDS011;2783;48.730;8.006;2022-07-24T13:53:42;4.75;;;3.08;;
5521;SDS011;2783;48.730;8.006;2022-07-24T13:56:08;4.68;;;3.10;;
5521;SDS011;2783;48.730;8.006;2022-07-24T13:58:34;5.90;;;3.28;;
5521;SDS011;2783;48.730;8.006;2022-07-24T14:01:04;4.57;;;2.95;;
5521;SDS011;2783;48.730;8.006;2022-07-24T14:03:30;5.88;;;3.15;;
5521;SDS011;2783;48.730;8.006;2022-07-24T14:05:57;5.53;;;3.28;;
5521;SDS011;2783;48.730;8.006;2022-07-24T14:08:23;4.25;;;2.90;;
5521;SDS011;2783;48.730;8.006;2022-07-24T14:10:48;5.55;;;3.10;;
5521;SDS011;2783;48.730;8.006;2022-07-24T14:13:14;4.60;;;2.67;;
5521;SDS011;2783;48.730;8.006;2022-07-24T14:15:39;4.40;;;2.80;;
5521;SDS011;2783;48.730;8.006;2022-07-24T14:18:05;4.30;;;2.83;;
5521;SDS011;2783;48.730;8.006;2022-07-24T14:20:30;5.55;;;3.28;;
5521;SDS011;2783;48.730;8.006;2022-07-24T14:22:56;5.88;;;3.38;;
5521;SDS011;2783;48.730;8.006;2022-07-24T14:25:21;4.75;;;2.97;;
5521;SDS011;2783;48.730;8.006;2022-07-24T14:27:47;4.72;;;3.00;;
5521;SDS011;2783;48.730;8.006;2022-07-24T14:30:12;4.53;;;2.88;;
5521;SDS011;2783;48.730;8.006;2022-07-24T14:32:38;4.50;;;2.88;;
5521;SDS011;2783;48.730;8.006;2022-07-24T14:35:05;5.80;;;3.50;;
5521;SDS011;2783;48.730;8.006;2022-07-24T14:37:32;5.28;;;3.13;;
5521;SDS011;2783;48.730;8.006;2022-07-24T14:39:59;5.47;;;3.50;;
5521;SDS011;2783;48.730;8.006;2022-07-24T14:42:24;5.32;;;3.58;;
5521;SDS011;2783;48.730;8.006;2022-07-24T14:44:50;5.20;;;3.42;;
5521;SDS011;2783;48.730;8.006;2022-07-24T14:47:16;6.20;;;2.97;;
5521;SDS011;2783;48.730;8.006;2022-07-24T14:49:41;5.20;;;2.70;;
5521;SDS011;2783;48.730;8.006;2022-07-24T14:52:07;4.38;;;2.80;;
5521;SDS011;2783;48.730;8.006;2022-07-24T14:54:32;4.85;;;3.05;;
5521;SDS011;2783;48.730;8.006;2022-07-24T14:56:57;5.10;;;3.30;;
5521;SDS011;2783;48.730;8.006;2022-07-24T14:59:25;5.90;;;3.33;;
5521;SDS011;2783;48.730;8.006;2022-07-24T15:01:51;4.80;;;3.08;;
5521;SDS011;2783;48.730;8.006;2022-07-24T15:04:16;5.40;;;3.03;;
5521;SDS011;2783;48.730;8.006;2022-07-24T15:06:42;4.90;;;2.80;;
5521;SDS011;2783;48.730;8.006;2022-07-24T15:09:07;7.18;;;3.20;;
5521;SDS011;2783;48.730;8.006;2022-07-24T15:11:33;5.95;;;3.00;;
5521;SDS011;2783;48.730;8.006;2022-07-24T15:13:58;4.78;;;2.78;;
5521;SDS011;2783;48.730;8.006;2022-07-24T15:16:24;5.07;;;3.05;;
5521;SDS011;2783;48.730;8.006;2022-07-24T15:18:49;7.15;;;3.10;;
5521;SDS011;2783;48.730;8.006;2022-07-24T15:21:15;6.00;;;3.40;;
5521;SDS011;2783;48.730;8.006;2022-07-24T15:23:40;5.53;;;2.92;;
5521;SDS011;2783;48.730;8.006;2022-07-24T15:26:06;5.00;;;3.42;;
5521;SDS011;2783;48.730;8.006;2022-07-24T15:28:31;7.57;;;3.42;;
5521;SDS011;2783;48.730;8.006;2022-07-24T15:30:57;4.97;;;3.17;;
5521;SDS011;2783;48.730;8.006;2022-07-24T15:33:22;4.65;;;3.00;;
5521;SDS011;2783;48.730;8.006;2022-07-24T15:35:48;5.63;;;3.20;;
5521;SDS011;2783;48.730;8.006;2022-07-24T15:38:13;4.43;;;2.85;;
5521;SDS011;2783;48.730;8.006;2022-07-24T15:40:39;4.82;;;3.20;;
5521;SDS011;2783;48.730;8.006;2022-07-24T15:43:05;5.25;;;3.10;;
5521;SDS011;2783;48.730;8.006;2022-07-24T15:45:34;5.38;;;3.33;;
5521;SDS011;2783;48.730;8.006;2022-07-24T15:47:59;4.60;;;3.10;;
5521;SDS011;2783;48.730;8.006;2022-07-24T15:50:24;4.88;;;3.22;;